createdAt,value
2023-02-17T00:00:39.575Z,7.59
2023-02-17T00:03:11.094Z,7.58
2023-02-17T00:05:42.944Z,7.57
2023-02-17T00:08:14.493Z,7.56
2023-02-17T00:10:46.352Z,7.54
2023-02-17T00:13:17.870Z,7.49
2023-02-17T00:15:49.855Z,7.44
2023-02-17T00:18:21.407Z,7.45
2023-02-17T00:20:53.417Z,7.41
2023-02-17T00:23:24.917Z,7.35
2023-02-17T00:25:56.440Z,7.37
2023-02-17T00:28:28.191Z,7.24
2023-02-17T00:30:59.939Z,7.15
2023-02-17T00:33:31.501Z,7.16
2023-02-17T00:36:03.527Z,7.11
2023-02-17T00:38:35.213Z,7.17
2023-02-17T00:41:07.212Z,7.14
2023-02-17T00:43:38.739Z,7.16
2023-02-17T00:46:10.706Z,7.21
2023-02-17T00:48:42.322Z,7.16
2023-02-17T00:51:13.919Z,7.13
2023-02-17T00:53:45.775Z,7.03
2023-02-17T00:56:17.288Z,7.00
2023-02-17T00:58:49.206Z,7.00
2023-02-17T01:01:20.795Z,7.02
2023-02-17T01:03:52.863Z,6.99
2023-02-17T01:06:24.553Z,6.98
2023-02-17T01:08:56.387Z,7.00
2023-02-17T01:11:27.897Z,6.96
2023-02-17T01:13:59.639Z,6.89
2023-02-17T01:16:34.964Z,6.87
2023-02-17T01:19:06.830Z,6.85
2023-02-17T01:21:38.361Z,6.84
2023-02-17T01:24:09.936Z,6.92
2023-02-17T01:26:41.454Z,6.89
2023-02-17T01:29:13.355Z,6.85
2023-02-17T01:31:44.924Z,6.82
2023-02-17T01:34:16.546Z,6.85
2023-02-17T01:36:48.030Z,6.81
2023-02-17T01:39:20.080Z,6.85
2023-02-17T01:41:51.583Z,6.84
2023-02-17T01:44:23.408Z,6.87
2023-02-17T01:46:55.007Z,6.86
2023-02-17T01:49:26.928Z,6.92
2023-02-17T01:51:58.492Z,7.02
2023-02-17T01:54:30.296Z,6.96
2023-02-17T01:57:01.822Z,7.02
2023-02-17T01:59:33.555Z,6.99
2023-02-17T02:02:05.174Z,6.96
2023-02-17T02:04:37.144Z,6.98
2023-02-17T02:07:08.647Z,7.08
2023-02-17T02:09:40.665Z,7.06
2023-02-17T02:12:12.199Z,7.08
2023-02-17T02:14:44.002Z,6.96
2023-02-17T02:17:15.509Z,6.94
2023-02-17T02:19:47.431Z,6.89
2023-02-17T02:22:18.937Z,6.88
2023-02-17T02:24:50.725Z,6.85
2023-02-17T02:27:22.226Z,6.77
2023-02-17T02:29:54.426Z,6.77
2023-02-17T02:32:25.930Z,6.73
2023-02-17T02:34:57.624Z,6.71
2023-02-17T02:37:29.128Z,6.62
2023-02-17T02:40:00.945Z,6.63
2023-02-17T02:42:32.439Z,6.60
2023-02-17T02:45:04.433Z,6.54
2023-02-17T02:47:35.996Z,6.54
2023-02-17T02:50:07.527Z,6.54
2023-02-17T02:52:39.064Z,6.59
2023-02-17T02:55:11.052Z,6.61
2023-02-17T02:57:42.576Z,6.59
2023-02-17T03:00:14.103Z,6.55
2023-02-17T03:02:45.991Z,6.61
2023-02-17T03:05:17.527Z,6.59
2023-02-17T03:07:49.043Z,6.61
2023-02-17T03:10:20.609Z,6.60
2023-02-17T03:12:52.112Z,6.59
2023-02-17T03:15:23.948Z,6.58
2023-02-17T03:17:55.453Z,6.54
2023-02-17T03:20:27.214Z,6.58
2023-02-17T03:22:58.738Z,6.61
2023-02-17T03:25:30.762Z,6.65
2023-02-17T03:28:02.283Z,6.68
2023-02-17T03:30:34.071Z,6.67
2023-02-17T03:33:05.610Z,6.62
2023-02-17T03:35:37.458Z,6.64
2023-02-17T03:38:08.967Z,6.63
2023-02-17T03:40:40.841Z,6.68
2023-02-17T03:43:12.352Z,6.58
2023-02-17T03:45:44.060Z,6.59
2023-02-17T03:48:15.585Z,6.62
2023-02-17T03:50:47.387Z,6.55
2023-02-17T03:53:18.894Z,6.56
2023-02-17T03:55:50.806Z,6.64
2023-02-17T03:58:22.318Z,6.54
2023-02-17T04:00:54.189Z,6.49
2023-02-17T04:03:25.681Z,6.50
2023-02-17T04:05:57.628Z,6.51
2023-02-17T04:08:29.319Z,6.49
2023-02-17T04:11:01.040Z,6.48
2023-02-17T04:13:32.594Z,6.43
2023-02-17T04:16:05.267Z,6.49
2023-02-17T04:18:37.284Z,6.49
2023-02-17T04:21:09.156Z,6.47
2023-02-17T04:23:40.677Z,6.45
2023-02-17T04:26:12.604Z,6.45
2023-02-17T04:28:44.128Z,6.45
2023-02-17T04:31:15.812Z,6.50
2023-02-17T04:33:47.487Z,6.47
2023-02-17T04:36:19.057Z,6.49
2023-02-17T04:38:50.580Z,6.50
2023-02-17T04:41:22.403Z,6.52
2023-02-17T04:43:53.931Z,6.56
2023-02-17T04:46:25.775Z,6.57
2023-02-17T04:48:57.260Z,6.57
2023-02-17T04:51:29.080Z,6.59
2023-02-17T04:54:00.643Z,6.55
2023-02-17T04:56:32.726Z,6.59
2023-02-17T04:59:04.285Z,6.64
2023-02-17T05:01:36.367Z,6.65
2023-02-17T05:04:07.977Z,6.59
2023-02-17T05:06:39.833Z,6.61
2023-02-17T05:09:11.440Z,6.66
2023-02-17T05:11:43.336Z,6.71
2023-02-17T05:14:14.843Z,6.64
2023-02-17T05:16:46.704Z,6.67
2023-02-17T05:19:18.291Z,6.74
2023-02-17T05:21:51.724Z,6.71
2023-02-17T05:24:23.227Z,6.77
2023-02-17T05:26:54.927Z,6.81
2023-02-17T05:29:26.437Z,6.83
2023-02-17T05:31:58.186Z,6.81
2023-02-17T05:34:29.813Z,6.80
2023-02-17T05:37:01.327Z,6.83
2023-02-17T05:39:32.844Z,6.85
2023-02-17T05:42:04.551Z,6.87
2023-02-17T05:44:36.074Z,6.88
2023-02-17T05:47:07.919Z,6.95
2023-02-17T05:49:39.445Z,6.97
2023-02-17T05:52:11.242Z,6.99
2023-02-17T05:54:42.787Z,6.99
2023-02-17T05:57:14.377Z,7.08
2023-02-17T05:59:45.946Z,7.06
2023-02-17T06:02:17.504Z,7.12
2023-02-17T06:04:49.082Z,7.10
2023-02-17T06:07:20.768Z,7.14
2023-02-17T06:09:52.349Z,7.19
2023-02-17T06:12:24.147Z,7.14
2023-02-17T06:14:55.704Z,7.19
2023-02-17T06:17:27.614Z,7.22
2023-02-17T06:19:59.126Z,7.25
2023-02-17T06:22:30.991Z,7.22
2023-02-17T06:25:02.623Z,7.28
2023-02-17T06:27:34.182Z,7.28
2023-02-17T06:30:05.957Z,7.34
2023-02-17T06:32:37.805Z,7.36
2023-02-17T06:35:09.323Z,7.40
2023-02-17T06:37:41.147Z,7.40
2023-02-17T06:40:12.685Z,7.45
2023-02-17T06:42:44.200Z,7.53
2023-02-17T06:45:15.739Z,7.55
2023-02-17T06:47:47.895Z,7.60
2023-02-17T06:50:19.462Z,7.61
2023-02-17T06:52:51.013Z,7.63
2023-02-17T06:55:22.841Z,7.71
2023-02-17T06:57:54.354Z,7.77
2023-02-17T07:00:27.074Z,7.81
2023-02-17T07:02:58.736Z,7.84
2023-02-17T07:05:30.643Z,7.87
2023-02-17T07:08:02.226Z,7.92
2023-02-17T07:10:34.039Z,7.98
2023-02-17T07:13:05.615Z,7.98
2023-02-17T07:15:37.457Z,8.00
2023-02-17T07:18:09.006Z,7.97
2023-02-17T07:20:40.924Z,8.05
2023-02-17T07:23:12.824Z,8.09
2023-02-17T07:25:44.702Z,8.20
2023-02-17T07:28:16.222Z,8.13
2023-02-17T07:30:48.172Z,8.23
2023-02-17T07:33:19.722Z,8.27
2023-02-17T07:35:51.690Z,8.29
2023-02-17T07:38:23.187Z,8.33
2023-02-17T07:40:54.812Z,8.30
2023-02-17T07:43:26.327Z,8.35
2023-02-17T07:45:59.393Z,8.49
2023-02-17T07:48:31.031Z,8.33
2023-02-17T07:51:02.838Z,8.41
2023-02-17T07:53:34.338Z,8.41
2023-02-17T07:56:06.390Z,8.53
2023-02-17T07:58:38.076Z,8.62
2023-02-17T08:01:09.769Z,8.65
2023-02-17T08:03:41.297Z,8.68
2023-02-17T08:06:13.227Z,8.67
2023-02-17T08:09:03.599Z,8.68
2023-02-17T08:11:53.750Z,8.72
2023-02-17T08:14:25.273Z,8.78
2023-02-17T08:16:57.013Z,8.72
2023-02-17T08:19:42.782Z,8.79
2023-02-17T08:22:18.241Z,8.88
2023-02-17T08:24:49.770Z,8.84
2023-02-17T08:27:21.451Z,8.86
2023-02-17T08:29:55.566Z,8.89
2023-02-17T08:32:27.292Z,8.78
2023-02-17T08:34:58.879Z,8.78
2023-02-17T08:37:31.972Z,8.72
2023-02-17T08:40:03.663Z,8.71
2023-02-17T08:42:35.582Z,8.69
2023-02-17T08:45:07.091Z,8.74
2023-02-17T08:47:38.864Z,8.77
2023-02-17T08:50:10.356Z,8.70
2023-02-17T08:52:42.271Z,8.65
2023-02-17T08:55:13.832Z,8.67
2023-02-17T08:57:45.545Z,8.69
2023-02-17T09:00:17.166Z,8.73
2023-02-17T09:02:49.069Z,8.72
2023-02-17T09:05:20.592Z,8.70
2023-02-17T09:07:52.411Z,8.72
2023-02-17T09:10:23.919Z,8.73
2023-02-17T09:12:55.754Z,8.72
2023-02-17T09:15:27.310Z,8.76
2023-02-17T09:17:59.179Z,8.75
2023-02-17T09:20:30.698Z,8.87
2023-02-17T09:23:02.604Z,8.82
2023-02-17T09:25:34.512Z,8.77
2023-02-17T09:28:06.484Z,8.82
2023-02-17T09:30:38.041Z,8.86
2023-02-17T09:33:09.867Z,8.90
2023-02-17T09:35:41.374Z,8.83
2023-02-17T09:38:12.940Z,8.93
2023-02-17T09:40:49.232Z,8.87
2023-02-17T09:43:21.241Z,8.80
2023-02-17T09:45:52.819Z,8.83
2023-02-17T09:48:24.636Z,8.76
2023-02-17T09:50:56.164Z,8.82
2023-02-17T09:53:27.978Z,8.90
2023-02-17T09:55:59.482Z,8.94
2023-02-17T09:58:31.348Z,8.88
2023-02-17T10:01:04.190Z,8.82
2023-02-17T10:03:36.231Z,8.95
2023-02-17T10:06:08.156Z,8.94
2023-02-17T10:08:40.441Z,8.90
2023-02-17T10:11:12.083Z,8.90
2023-02-17T10:13:43.986Z,8.93
2023-02-17T10:16:15.577Z,8.85
2023-02-17T10:18:47.652Z,8.99
2023-02-17T10:21:24.045Z,9.02
2023-02-17T10:23:55.684Z,8.91
2023-02-17T10:26:27.216Z,8.97
2023-02-17T10:28:58.900Z,8.99
2023-02-17T10:31:30.659Z,9.06
2023-02-17T10:34:03.295Z,8.97
2023-02-17T10:36:34.867Z,8.97
2023-02-17T10:39:06.474Z,9.04
2023-02-17T10:41:37.973Z,9.19
2023-02-17T10:44:09.648Z,9.18
2023-02-17T10:46:41.589Z,9.17
2023-02-17T10:49:13.138Z,9.23
2023-02-17T10:51:44.967Z,9.37
2023-02-17T10:54:16.580Z,9.49
2023-02-17T10:56:48.563Z,9.46
2023-02-17T10:59:20.053Z,9.48
2023-02-17T11:01:51.655Z,9.53
2023-02-17T11:04:23.164Z,9.49
2023-02-17T11:06:58.049Z,9.56
2023-02-17T11:09:32.680Z,9.66
2023-02-17T11:12:04.207Z,9.73
2023-02-17T11:14:35.685Z,9.88
2023-02-17T11:17:07.413Z,9.90
2023-02-17T11:19:39.168Z,9.95
2023-02-17T11:22:12.928Z,9.98
2023-02-17T11:24:44.527Z,10.09
2023-02-17T11:27:16.062Z,10.06
2023-02-17T11:29:47.575Z,10.06
2023-02-17T11:32:20.082Z,10.16
2023-02-17T11:34:51.608Z,10.09
2023-02-17T11:37:24.810Z,10.22
2023-02-17T11:39:56.375Z,10.21
2023-02-17T11:42:28.275Z,10.36
2023-02-17T11:44:59.765Z,10.39
2023-02-17T11:47:31.370Z,10.60
2023-02-17T11:50:02.928Z,10.59
2023-02-17T11:52:34.735Z,10.63
2023-02-17T11:55:06.268Z,10.63
2023-02-17T11:57:38.163Z,10.59
2023-02-17T12:00:09.643Z,10.69
2023-02-17T12:02:41.415Z,10.74
2023-02-17T12:05:13.041Z,10.70
2023-02-17T12:07:45.865Z,10.84
2023-02-17T12:10:17.509Z,10.83
2023-02-17T12:12:49.049Z,10.85
2023-02-17T12:15:20.812Z,10.84
2023-02-17T12:17:52.600Z,10.93
2023-02-17T12:20:24.082Z,11.07
2023-02-17T12:22:55.946Z,11.06
2023-02-17T12:25:34.117Z,11.10
2023-02-17T12:28:06.074Z,11.22
2023-02-17T12:30:37.626Z,11.33
2023-02-17T12:33:09.596Z,11.41
2023-02-17T12:35:41.248Z,11.34
2023-02-17T12:38:13.130Z,11.36
2023-02-17T12:40:44.630Z,11.50
2023-02-17T12:43:16.122Z,11.60
2023-02-17T12:45:47.871Z,11.72
2023-02-17T12:48:19.461Z,12.01
2023-02-17T12:50:50.958Z,12.05
2023-02-17T12:53:22.456Z,12.10
2023-02-17T12:55:53.917Z,11.98
2023-02-17T12:58:25.737Z,12.09
2023-02-17T13:00:57.264Z,12.03
2023-02-17T13:03:29.269Z,12.04
2023-02-17T13:06:00.797Z,12.07
2023-02-17T13:08:33.794Z,12.04
2023-02-17T13:11:05.263Z,11.94
2023-02-17T13:13:37.136Z,12.03
2023-02-17T13:16:09.265Z,11.94
2023-02-17T13:18:41.327Z,11.95
2023-02-17T13:21:12.832Z,11.97
2023-02-17T13:23:44.702Z,12.04
2023-02-17T13:26:17.841Z,12.03
2023-02-17T13:28:49.637Z,12.08
2023-02-17T13:31:21.149Z,12.05
2023-02-17T13:33:52.774Z,12.10
2023-02-17T13:36:24.329Z,12.10
2023-02-17T13:38:56.474Z,12.19
2023-02-17T13:41:28.022Z,12.20
2023-02-17T13:43:59.863Z,12.23
2023-02-17T13:46:31.362Z,12.20
2023-02-17T13:49:03.778Z,12.25
2023-02-17T13:51:35.403Z,12.34
2023-02-17T13:54:07.201Z,12.34
2023-02-17T13:56:38.726Z,12.33
2023-02-17T13:59:10.696Z,12.35
2023-02-17T14:01:42.234Z,12.32
2023-02-17T14:04:13.814Z,12.37
2023-02-17T14:06:45.300Z,12.44
2023-02-17T14:09:16.860Z,12.42
2023-02-17T14:11:48.351Z,12.45
2023-02-17T14:14:19.850Z,12.49
2023-02-17T14:16:51.338Z,12.51
2023-02-17T14:19:23.066Z,12.50
2023-02-17T14:21:54.632Z,12.60
2023-02-17T14:24:26.307Z,12.56
2023-02-17T14:26:58.140Z,12.65
2023-02-17T14:29:30.047Z,12.58
2023-02-17T14:32:01.675Z,12.63
2023-02-17T14:34:34.218Z,12.66
2023-02-17T14:37:05.800Z,12.62
2023-02-17T14:39:37.553Z,12.70
2023-02-17T14:42:09.108Z,12.75
2023-02-17T14:44:40.974Z,12.73
2023-02-17T14:47:12.563Z,12.63
2023-02-17T14:49:44.122Z,12.64
2023-02-17T14:52:15.721Z,12.64
2023-02-17T14:54:47.243Z,12.43
2023-02-17T14:57:18.809Z,12.07
2023-02-17T14:59:50.370Z,11.84
2023-02-17T15:02:21.874Z,11.72
2023-02-17T15:04:53.774Z,11.52
2023-02-17T15:07:25.319Z,11.50
2023-02-17T15:09:57.174Z,11.41
2023-02-17T15:12:28.677Z,11.38
2023-02-17T15:15:00.188Z,11.22
2023-02-17T15:17:31.707Z,11.19
2023-02-17T15:20:05.723Z,11.13
2023-02-17T15:22:41.545Z,11.14
2023-02-17T15:25:13.835Z,11.02
2023-02-17T15:27:45.345Z,11.08
2023-02-17T15:30:16.917Z,10.99
2023-02-17T15:32:48.505Z,11.03
2023-02-17T15:35:20.022Z,11.07
2023-02-17T15:37:51.544Z,11.06
2023-02-17T15:40:23.294Z,10.99
2023-02-17T15:42:54.810Z,11.01
2023-02-17T15:45:26.359Z,10.98
2023-02-17T15:47:57.868Z,11.00
2023-02-17T15:50:29.783Z,11.00
2023-02-17T15:53:01.470Z,10.96
2023-02-17T15:55:33.477Z,11.00
2023-02-17T15:58:05.255Z,10.99
2023-02-17T16:00:37.207Z,10.98
2023-02-17T16:03:09.121Z,10.95
2023-02-17T16:05:40.721Z,10.98
2023-02-17T16:08:12.825Z,10.97
2023-02-17T16:10:45.516Z,10.97
2023-02-17T16:13:17.255Z,10.98
2023-02-17T16:15:49.020Z,11.03
2023-02-17T16:18:21.113Z,11.01
2023-02-17T16:20:52.723Z,11.06
2023-02-17T16:23:24.749Z,11.11
2023-02-17T16:25:56.258Z,11.07
2023-02-17T16:28:27.956Z,11.06
2023-02-17T16:30:59.509Z,11.07
2023-02-17T16:33:31.249Z,11.11
2023-02-17T16:36:02.779Z,11.16
2023-02-17T16:38:34.988Z,11.20
2023-02-17T16:41:07.768Z,11.30
2023-02-17T16:43:39.608Z,11.26
2023-02-17T16:46:11.330Z,11.34
2023-02-17T16:48:43.252Z,11.36
2023-02-17T16:51:14.796Z,11.44
2023-02-17T16:53:46.664Z,11.46
2023-02-17T16:56:18.325Z,11.48
2023-02-17T16:58:50.061Z,11.50
2023-02-17T17:01:23.961Z,11.48
2023-02-17T17:03:56.048Z,11.54
2023-02-17T17:06:27.798Z,11.57
2023-02-17T17:08:59.702Z,11.50
2023-02-17T17:11:31.217Z,11.19
2023-02-17T17:14:02.991Z,10.96
2023-02-17T17:16:34.853Z,10.88
2023-02-17T17:19:06.778Z,10.74
2023-02-17T17:21:38.295Z,10.88
2023-02-17T17:24:10.164Z,10.87
2023-02-17T17:26:43.792Z,10.92
2023-02-17T17:29:15.360Z,10.84
2023-02-17T17:31:46.977Z,10.98
2023-02-17T17:34:18.575Z,11.01
2023-02-17T17:36:50.091Z,10.98
2023-02-17T17:39:21.752Z,11.05
2023-02-17T17:41:53.346Z,11.02
2023-02-17T17:44:27.759Z,11.07
2023-02-17T17:46:59.382Z,11.01
2023-02-17T17:49:31.278Z,11.06
2023-02-17T17:52:02.918Z,11.09
2023-02-17T17:54:34.864Z,11.16
2023-02-17T17:57:06.467Z,11.18
2023-02-17T17:59:38.280Z,11.30
2023-02-17T18:02:09.850Z,11.26
2023-02-17T18:04:41.765Z,11.32
2023-02-17T18:07:13.433Z,11.37
2023-02-17T18:09:45.144Z,11.30
2023-02-17T18:12:16.741Z,11.29
2023-02-17T18:14:48.673Z,11.31
2023-02-17T18:17:20.577Z,11.34
2023-02-17T18:19:55.264Z,11.34
2023-02-17T18:22:26.770Z,11.33
2023-02-17T18:24:58.673Z,11.36
2023-02-17T18:27:30.203Z,11.34
2023-02-17T18:30:01.797Z,11.42
2023-02-17T18:32:33.359Z,11.24
2023-02-17T18:35:05.885Z,10.74
2023-02-17T18:37:37.399Z,9.97
2023-02-17T18:40:09.126Z,9.79
2023-02-17T18:42:40.708Z,9.58
2023-02-17T18:45:12.237Z,9.55
2023-02-17T18:47:43.824Z,9.43
2023-02-17T18:50:15.418Z,9.39
2023-02-17T18:52:46.962Z,9.35
2023-02-17T18:55:18.474Z,9.29
2023-02-17T18:57:50.010Z,9.30
2023-02-17T19:00:21.518Z,9.34
2023-02-17T19:02:53.268Z,9.36
2023-02-17T19:05:24.822Z,9.31
2023-02-17T19:07:56.368Z,9.35
2023-02-17T19:10:27.903Z,9.34
2023-02-17T19:12:59.459Z,9.37
2023-02-17T19:15:31.325Z,9.36
2023-02-17T19:18:02.896Z,9.36
2023-02-17T19:20:34.637Z,9.30
2023-02-17T19:23:06.128Z,9.27
2023-02-17T19:25:37.986Z,9.30
2023-02-17T19:28:09.499Z,9.21
2023-02-17T19:30:41.114Z,9.17
2023-02-17T19:33:12.629Z,9.13
2023-02-17T19:35:44.198Z,9.04
2023-02-17T19:38:15.709Z,8.88
2023-02-17T19:40:47.319Z,8.88
2023-02-17T19:43:18.828Z,8.87
2023-02-17T19:45:50.716Z,8.85
2023-02-17T19:48:24.199Z,8.72
2023-02-17T19:50:56.298Z,8.63
2023-02-17T19:53:27.857Z,8.57
2023-02-17T19:55:59.403Z,8.63
2023-02-17T19:58:30.935Z,8.59
2023-02-17T20:01:02.785Z,8.45
2023-02-17T20:03:34.413Z,8.48
2023-02-17T20:06:06.544Z,8.51
2023-02-17T20:08:38.275Z,8.41
2023-02-17T20:11:10.207Z,8.44
2023-02-17T20:13:46.057Z,8.40
2023-02-17T20:16:18.235Z,8.37
2023-02-17T20:18:49.805Z,8.37
2023-02-17T20:21:24.450Z,8.38
2023-02-17T20:23:56.088Z,8.34
2023-02-17T20:26:28.046Z,8.24
2023-02-17T20:28:59.627Z,8.16
2023-02-17T20:31:31.716Z,8.14
2023-02-17T20:34:04.021Z,8.12
2023-02-17T20:36:35.798Z,8.07
2023-02-17T20:39:07.342Z,8.03
2023-02-17T20:41:39.306Z,7.93
2023-02-17T20:44:10.984Z,7.93
2023-02-17T20:46:42.898Z,7.88
2023-02-17T20:49:15.049Z,7.89
2023-02-17T20:51:46.812Z,7.90
2023-02-17T20:54:18.437Z,7.87
2023-02-17T20:56:50.357Z,7.84
2023-02-17T20:59:21.992Z,7.84
2023-02-17T21:01:54.011Z,7.79
2023-02-17T21:04:25.496Z,7.80
2023-02-17T21:06:57.386Z,7.86
2023-02-17T21:09:28.927Z,7.80
2023-02-17T21:12:00.996Z,7.79
2023-02-17T21:14:32.539Z,7.79
2023-02-17T21:17:04.470Z,7.74
2023-02-17T21:19:36.009Z,7.68
2023-02-17T21:22:07.589Z,7.67
2023-02-17T21:24:39.118Z,7.68
2023-02-17T21:27:11.058Z,7.63
2023-02-17T21:29:42.597Z,7.57
2023-02-17T21:32:14.405Z,7.57
2023-02-17T21:34:45.984Z,7.53
2023-02-17T21:37:17.807Z,7.51
2023-02-17T21:39:49.466Z,7.47
2023-02-17T21:42:41.238Z,7.42
2023-02-17T21:45:12.779Z,7.42
2023-02-17T21:47:45.841Z,7.37
2023-02-17T21:50:17.394Z,7.32
2023-02-17T21:52:49.328Z,7.27
2023-02-17T21:55:20.850Z,7.23
2023-02-17T21:57:52.865Z,7.25
2023-02-17T22:00:24.387Z,7.24
2023-02-17T22:02:56.264Z,7.17
2023-02-17T22:05:27.952Z,7.19
2023-02-17T22:07:59.841Z,7.20
2023-02-17T22:10:31.704Z,7.15
2023-02-17T22:13:03.293Z,7.13
2023-02-17T22:15:34.831Z,7.12
2023-02-17T22:18:06.389Z,7.17
2023-02-17T22:20:38.041Z,7.17
2023-02-17T22:23:09.720Z,7.15
2023-02-17T22:25:41.323Z,7.17
2023-02-17T22:28:14.445Z,7.17
2023-02-17T22:30:46.638Z,7.18
2023-02-17T22:33:18.169Z,7.15
2023-02-17T22:35:49.724Z,7.16
2023-02-17T22:38:21.272Z,7.12
2023-02-17T22:40:53.172Z,7.13
2023-02-17T22:43:24.843Z,7.06
2023-02-17T22:45:56.437Z,7.08
2023-02-17T22:48:28.038Z,7.07
2023-02-17T22:50:59.900Z,7.06
2023-02-17T22:53:31.405Z,7.03
2023-02-17T22:56:03.296Z,7.03
2023-02-17T22:58:34.837Z,7.03
2023-02-17T23:01:06.883Z,7.06
2023-02-17T23:03:38.483Z,7.06
2023-02-17T23:06:10.199Z,7.09
2023-02-17T23:08:43.105Z,7.07
2023-02-17T23:11:14.719Z,7.13
2023-02-17T23:13:46.279Z,7.08
2023-02-17T23:16:17.849Z,6.93
2023-02-17T23:18:49.406Z,6.96
2023-02-17T23:21:20.973Z,5.87
2023-02-17T23:23:52.471Z,6.80
2023-02-17T23:26:24.443Z,6.80
2023-02-17T23:28:56.128Z,6.78
2023-02-17T23:31:28.084Z,6.83
2023-02-17T23:33:59.648Z,6.79
2023-02-17T23:36:31.156Z,6.77
2023-02-17T23:39:02.845Z,6.77
2023-02-17T23:41:34.715Z,6.76
2023-02-17T23:44:06.231Z,6.74
2023-02-17T23:46:37.936Z,6.69
2023-02-17T23:49:09.437Z,6.66
2023-02-17T23:51:41.368Z,6.63
2023-02-17T23:54:13.010Z,6.64
2023-02-17T23:56:44.700Z,6.59
2023-02-17T23:59:16.247Z,6.61
